Time;durP1;ratioP1;P1;durP2;ratioP2;P2;SDS_P1;SDS_P2;PMS_P1;PMS_P2;Temp;Humidity;BMP_temperature;BMP_pressure;BME280_temperature;BME280_humidity;BME280_pressure;Samples;Min_cycle;Max_cycle;Signal;HPM_P1;HPM_P2
2022/07/11 00:02:04;;;;;;;4.53;1.02;;;14.10;66.00;;;;;;5010573;28;20061;-77
2022/07/11 00:04:31;;;;;;;1.77;1.00;;;14.00;66.50;;;;;;5010299;28;20026;-77
2022/07/11 00:06:57;;;;;;;5.90;1.15;;;13.90;66.90;;;;;;5009973;28;20037;-76
2022/07/11 00:09:23;;;;;;;2.63;1.00;;;13.80;67.30;;;;;;5010304;28;20022;-77
2022/07/11 00:11:48;;;;;;;2.65;1.00;;;13.80;67.60;;;;;;5009998;28;20044;-76
2022/07/11 00:14:16;;;;;;;2.22;1.08;;;13.80;67.70;;;;;;5010060;28;20025;-76
2022/07/11 00:16:41;;;;;;;2.45;1.13;;;13.90;67.60;;;;;;5010140;28;20037;-77
2022/07/11 00:19:07;;;;;;;5.53;1.15;;;13.90;67.40;;;;;;5010090;28;20363;-77
2022/07/11 00:21:36;;;;;;;2.83;1.25;;;13.90;67.30;;;;;;5010272;28;20113;-77
2022/07/11 00:24:04;;;;;;;3.97;1.10;;;13.80;67.40;;;;;;5010228;28;20050;-77
2022/07/11 00:26:30;;;;;;;4.75;1.30;;;13.70;67.60;;;;;;5009740;28;20026;-77
2022/07/11 00:28:56;;;;;;;3.55;1.42;;;13.70;67.80;;;;;;4993140;28;20041;-76
2022/07/11 00:31:22;;;;;;;3.40;1.30;;;13.60;68.00;;;;;;5009988;28;20076;-77
2022/07/11 00:33:48;;;;;;;3.00;0.98;;;13.50;68.40;;;;;;5009487;28;20024;-77
2022/07/11 00:36:13;;;;;;;3.78;1.10;;;13.50;68.80;;;;;;5009827;28;20029;-77
2022/07/11 00:38:39;;;;;;;2.45;1.00;;;13.50;68.90;;;;;;5011069;28;20479;-76
2022/07/11 00:41:05;;;;;;;2.80;1.30;;;13.50;68.80;;;;;;5009979;28;20026;-77
2022/07/11 00:43:37;;;;;;;3.05;0.93;;;13.50;68.90;;;;;;5009501;28;20037;-76
2022/07/11 00:46:03;;;;;;;3.25;1.48;;;13.40;69.00;;;;;;5009676;28;20033;-76
2022/07/11 00:48:29;;;;;;;1.55;0.93;;;13.30;69.50;;;;;;5009709;28;20437;-76
2022/07/11 00:50:56;;;;;;;7.80;1.20;;;13.30;69.60;;;;;;5009871;28;20068;-75
2022/07/11 00:53:23;;;;;;;4.35;1.30;;;13.30;69.70;;;;;;5009377;28;20026;-75
2022/07/11 00:55:52;;;;;;;7.82;1.27;;;13.40;69.40;;;;;;5009341;28;20022;-75
2022/07/11 00:58:18;;;;;;;4.50;1.20;;;13.40;69.40;;;;;;5009722;28;20036;-75
2022/07/11 01:00:44;;;;;;;2.90;1.20;;;13.30;69.50;;;;;;5009563;28;20026;-75
2022/07/11 01:03:11;;;;;;;4.07;1.23;;;13.30;69.50;;;;;;5009604;28;20025;-75
2022/07/11 01:05:36;;;;;;;1.48;0.88;;;13.20;70.10;;;;;;5009347;28;20029;-76
2022/07/11 01:08:02;;;;;;;3.63;1.15;;;13.20;70.20;;;;;;5009311;28;20022;-75
2022/07/11 01:10:28;;;;;;;4.60;1.45;;;13.20;70.20;;;;;;4992542;28;20034;-75
2022/07/11 01:12:54;;;;;;;2.30;0.90;;;13.10;70.00;;;;;;5009569;28;20381;-75
2022/07/11 01:15:20;;;;;;;8.68;1.10;;;13.10;70.40;;;;;;5009470;28;20038;-75
2022/07/11 01:17:46;;;;;;;5.03;1.50;;;12.90;70.90;;;;;;5008929;28;20046;-76
2022/07/11 01:20:12;;;;;;;3.92;1.25;;;12.90;71.40;;;;;;5008880;28;20380;-75
2022/07/11 01:22:51;;;;;;;2.95;1.33;;;12.80;71.40;;;;;;5009175;28;20034;-75
2022/07/11 01:25:30;;;;;;;2.70;1.25;;;12.80;71.50;;;;;;5010518;28;20071;-75
2022/07/11 01:28:08;;;;;;;4.25;1.38;;;12.80;71.50;;;;;;5009223;28;20049;-76
2022/07/11 01:30:34;;;;;;;4.00;1.08;;;12.70;72.30;;;;;;5008297;28;20053;-75
2022/07/11 01:33:00;;;;;;;2.63;1.08;;;12.70;72.30;;;;;;5010170;28;20109;-75
2022/07/11 01:35:27;;;;;;;3.78;1.30;;;12.60;72.70;;;;;;5008753;28;20025;-75
2022/07/11 01:37:53;;;;;;;4.00;1.27;;;12.60;72.40;;;;;;5008917;28;20034;-75
2022/07/11 01:40:19;;;;;;;2.72;0.98;;;12.60;72.80;;;;;;5009061;28;20026;-75
2022/07/11 01:42:45;;;;;;;3.20;1.10;;;12.60;72.60;;;;;;5008859;28;20029;-76
2022/07/11 01:45:11;;;;;;;5.43;1.00;;;12.60;72.50;;;;;;5008513;28;20075;-76
2022/07/11 01:47:37;;;;;;;2.72;1.17;;;12.60;72.50;;;;;;5008803;28;20042;-77
2022/07/11 01:50:04;;;;;;;3.63;1.10;;;12.70;72.50;;;;;;5008986;28;20022;-77
2022/07/11 01:52:30;;;;;;;4.10;0.90;;;12.70;72.40;;;;;;5008625;28;20026;-76
2022/07/11 01:54:55;;;;;;;3.45;1.45;;;12.70;72.20;;;;;;5008415;28;20070;-76
2022/07/11 01:57:21;;;;;;;3.38;1.00;;;12.70;72.30;;;;;;5008791;28;20042;-77
2022/07/11 01:59:47;;;;;;;2.30;1.10;;;12.70;72.20;;;;;;5008867;28;20026;-77
2022/07/11 02:02:13;;;;;;;6.43;1.40;;;12.70;72.50;;;;;;5008548;28;20026;-76
2022/07/11 02:04:39;;;;;;;3.47;1.00;;;12.60;72.30;;;;;;5008560;28;20030;-76
2022/07/11 02:07:05;;;;;;;1.92;1.00;;;12.60;72.30;;;;;;5008663;28;20022;-76
2022/07/11 02:09:31;;;;;;;4.75;1.45;;;12.50;72.80;;;;;;5008754;28;20026;-76
2022/07/11 02:11:56;;;;;;;3.78;1.33;;;12.30;73.20;;;;;;5008195;28;20474;-76
2022/07/11 02:14:22;;;;;;;5.03;0.95;;;12.20;74.20;;;;;;5008538;28;20030;-77
2022/07/11 02:16:48;;;;;;;2.10;1.08;;;12.10;74.60;;;;;;4992116;28;20086;-76
2022/07/11 02:19:13;;;;;;;3.75;1.45;;;12.10;74.80;;;;;;4991944;28;20030;-76
2022/07/11 02:21:39;;;;;;;3.53;1.40;;;12.10;74.70;;;;;;5008522;28;20037;-76
2022/07/11 02:24:05;;;;;;;2.15;1.20;;;12.10;74.80;;;;;;5008599;28;20022;-77
2022/07/11 02:26:30;;;;;;;4.90;1.40;;;12.20;74.50;;;;;;5008387;28;20033;-77
2022/07/11 02:28:57;;;;;;;4.63;1.50;;;12.10;74.80;;;;;;5008401;28;20026;-76
2022/07/11 02:31:23;;;;;;;3.10;1.00;;;12.10;74.80;;;;;;5009335;28;20554;-76
2022/07/11 02:33:48;;;;;;;2.25;1.20;;;12.10;75.00;;;;;;5008937;28;20030;-76
2022/07/11 02:36:14;;;;;;;2.92;1.00;;;12.00;75.00;;;;;;5009493;28;20091;-77
2022/07/11 02:38:40;;;;;;;4.95;1.35;;;12.00;74.90;;;;;;5009873;28;20026;-76
2022/07/11 02:41:05;;;;;;;2.70;1.30;;;12.00;75.10;;;;;;5008358;28;20469;-76
2022/07/11 02:43:31;;;;;;;3.55;1.33;;;11.90;75.80;;;;;;5011518;28;20028;-77
2022/07/11 02:45:57;;;;;;;2.13;1.42;;;11.80;76.10;;;;;;5011405;28;20033;-77
2022/07/11 02:48:22;;;;;;;3.90;1.10;;;11.80;76.00;;;;;;5011161;28;20025;-77
2022/07/11 02:50:48;;;;;;;2.50;0.95;;;11.80;76.00;;;;;;5011684;28;20022;-77
2022/07/11 02:53:14;;;;;;;5.45;1.20;;;11.70;76.30;;;;;;5011579;28;20497;-77
2022/07/11 02:55:40;;;;;;;3.00;1.13;;;11.70;76.20;;;;;;5011336;28;20060;-77
2022/07/11 02:58:06;;;;;;;3.97;1.25;;;11.70;76.50;;;;;;5011306;28;20090;-76
2022/07/11 03:00:32;;;;;;;3.30;1.20;;;11.60;76.90;;;;;;5012543;28;20022;-77
2022/07/11 03:02:57;;;;;;;2.80;1.10;;;11.50;77.80;;;;;;5011106;28;20022;-76
2022/07/11 03:05:23;;;;;;;2.25;1.02;;;11.60;77.20;;;;;;5011506;28;20484;-77
2022/07/11 03:07:49;;;;;;;2.35;1.23;;;11.50;77.20;;;;;;5011291;28;20026;-76
2022/07/11 03:10:14;;;;;;;2.00;1.10;;;11.50;77.20;;;;;;5011487;28;20462;-77
2022/07/11 03:12:41;;;;;;;2.28;0.90;;;11.60;76.90;;;;;;5011069;28;20427;-77
2022/07/11 03:15:07;;;;;;;3.47;1.08;;;11.70;76.70;;;;;;5010975;28;20033;-75
2022/07/11 03:17:33;;;;;;;3.67;1.42;;;11.70;76.60;;;;;;5011106;28;20041;-76
2022/07/11 03:20:00;;;;;;;5.72;1.42;;;11.70;76.70;;;;;;5010741;28;20083;-75
2022/07/11 03:22:26;;;;;;;1.73;1.00;;;11.60;76.60;;;;;;5011050;28;20499;-75
2022/07/11 03:24:51;;;;;;;5.25;1.45;;;11.50;77.00;;;;;;5010734;28;20029;-75
2022/07/11 03:27:17;;;;;;;4.35;1.10;;;11.60;76.80;;;;;;5010864;28;20075;-76
2022/07/11 03:29:43;;;;;;;2.47;1.17;;;11.60;76.70;;;;;;5010729;28;20486;-76
2022/07/11 03:32:09;;;;;;;5.43;1.20;;;11.60;76.40;;;;;;5010543;28;20129;-75
2022/07/11 03:34:35;;;;;;;2.95;1.10;;;11.60;76.50;;;;;;5010801;28;20018;-76
2022/07/11 03:37:01;;;;;;;6.40;1.10;;;11.60;76.60;;;;;;5010750;28;20041;-76
2022/07/11 03:39:27;;;;;;;4.22;1.45;;;11.60;76.60;;;;;;4994198;28;20033;-76
2022/07/11 03:41:53;;;;;;;2.33;1.35;;;11.60;76.40;;;;;;5010457;28;20026;-75
2022/07/11 03:44:18;;;;;;;2.35;1.20;;;11.60;76.40;;;;;;5010267;28;20022;-76
2022/07/11 03:46:44;;;;;;;1.80;0.88;;;11.60;76.70;;;;;;5010517;28;20178;-75
2022/07/11 03:49:10;;;;;;;3.42;1.10;;;11.60;76.50;;;;;;5010760;28;20022;-74
2022/07/11 03:51:36;;;;;;;3.40;1.33;;;11.60;77.20;;;;;;5009737;28;20029;-74
2022/07/11 03:54:02;;;;;;;2.45;1.20;;;11.60;77.30;;;;;;5010178;28;20374;-74
2022/07/11 03:56:28;;;;;;;3.22;1.25;;;11.60;76.60;;;;;;5010095;28;20078;-75
2022/07/11 03:58:53;;;;;;;2.42;0.98;;;11.70;77.50;;;;;;5010158;28;20022;-74
2022/07/11 04:01:21;;;;;;;2.38;1.05;;;11.80;75.80;;;;;;5009904;28;20022;-76
2022/07/11 04:03:47;;;;;;;3.65;0.98;;;11.70;75.60;;;;;;5010487;28;20030;-75
2022/07/11 04:06:13;;;;;;;2.50;1.20;;;11.60;75.90;;;;;;5010279;28;20022;-75
2022/07/11 04:08:40;;;;;;;3.17;1.20;;;11.50;77.40;;;;;;5010078;28;20047;-74
2022/07/11 04:11:05;;;;;;;5.20;1.55;;;11.50;76.70;;;;;;5011194;28;20026;-75
2022/07/11 04:13:31;;;;;;;4.75;1.08;;;11.60;76.80;;;;;;5009894;28;20025;-75
2022/07/11 04:15:57;;;;;;;1.40;0.82;;;11.70;76.50;;;;;;5009874;28;20025;-75
2022/07/11 04:18:23;;;;;;;2.67;1.17;;;11.70;76.20;;;;;;5009920;28;20460;-75
2022/07/11 04:20:49;;;;;;;1.80;1.00;;;11.80;76.00;;;;;;5009643;28;20033;-76
2022/07/11 04:23:15;;;;;;;2.58;1.08;;;11.90;75.80;;;;;;5010130;28;20041;-76
2022/07/11 04:25:41;;;;;;;3.65;1.30;;;12.00;75.60;;;;;;5010143;28;20018;-75
2022/07/11 04:28:06;;;;;;;3.80;1.17;;;12.00;75.90;;;;;;5009282;28;20067;-75
2022/07/11 04:30:33;;;;;;;2.30;1.10;;;12.00;75.20;;;;;;5009473;28;20486;-75
2022/07/11 04:32:59;;;;;;;3.45;1.13;;;12.00;74.90;;;;;;5009936;28;20026;-75
2022/07/11 04:35:26;;;;;;;3.40;1.30;;;12.10;75.00;;;;;;5009487;28;20395;-76
2022/07/11 04:37:52;;;;;;;3.80;1.45;;;12.10;74.70;;;;;;5010693;28;20454;-75
2022/07/11 04:40:18;;;;;;;3.33;1.67;;;12.20;74.50;;;;;;5009487;28;20029;-75
2022/07/11 04:42:44;;;;;;;4.32;1.38;;;12.30;75.10;;;;;;5010375;28;20370;-75
2022/07/11 04:45:10;;;;;;;3.58;1.00;;;12.40;74.20;;;;;;5009357;28;20505;-76
2022/07/11 04:47:36;;;;;;;5.68;1.40;;;12.40;74.10;;;;;;5009623;28;20454;-76
2022/07/11 04:50:02;;;;;;;2.97;0.90;;;12.40;74.00;;;;;;5009600;28;20112;-76
2022/07/11 04:52:27;;;;;;;2.92;1.35;;;12.50;74.00;;;;;;5009587;28;20061;-75
2022/07/11 04:54:54;;;;;;;6.85;1.33;;;12.50;74.10;;;;;;5009433;28;20052;-76
2022/07/11 04:57:20;;;;;;;5.32;1.17;;;12.50;74.40;;;;;;5009054;28;20090;-75
2022/07/11 04:59:46;;;;;;;1.05;0.93;;;12.50;74.40;;;;;;5009532;28;20497;-75
2022/07/11 05:02:12;;;;;;;4.82;1.27;;;12.60;74.10;;;;;;5009290;28;20026;-75
2022/07/11 05:04:37;;;;;;;1.92;1.08;;;12.70;73.70;;;;;;5007601;28;20052;-75
2022/07/11 05:07:03;;;;;;;3.33;1.63;;;12.90;73.40;;;;;;5009306;28;20026;-75
2022/07/11 05:09:29;;;;;;;2.05;1.30;;;13.00;73.00;;;;;;5008836;28;20033;-75
2022/07/11 05:11:54;;;;;;;2.50;1.23;;;13.00;73.10;;;;;;5008919;28;20018;-74
2022/07/11 05:14:20;;;;;;;4.85;1.40;;;13.00;72.90;;;;;;5009026;28;20390;-76
2022/07/11 05:16:46;;;;;;;5.50;1.42;;;13.20;72.70;;;;;;5010197;28;20386;-74
2022/07/11 05:19:12;;;;;;;2.25;1.30;;;13.30;72.50;;;;;;5008704;28;20094;-75
2022/07/11 05:21:37;;;;;;;2.60;1.45;;;13.40;72.30;;;;;;5009045;28;20400;-75
2022/07/11 05:24:03;;;;;;;3.45;1.50;;;13.50;72.00;;;;;;5008961;28;20030;-75
2022/07/11 05:26:29;;;;;;;4.68;1.50;;;13.60;71.60;;;;;;5008569;28;20067;-75
2022/07/11 05:28:55;;;;;;;2.10;1.45;;;13.80;71.50;;;;;;5008336;28;20029;-75
2022/07/11 05:31:20;;;;;;;4.53;1.13;;;14.00;71.20;;;;;;5008417;28;20624;-75
2022/07/11 05:33:46;;;;;;;5.43;1.35;;;14.10;70.90;;;;;;5008631;28;20033;-75
2022/07/11 05:36:12;;;;;;;3.50;1.48;;;14.20;70.30;;;;;;5008264;28;20030;-75
2022/07/11 05:38:38;;;;;;;4.65;1.88;;;14.30;69.80;;;;;;5008409;28;20068;-75
2022/07/11 05:41:04;;;;;;;3.53;1.30;;;14.40;69.50;;;;;;5010120;28;20018;-75
2022/07/11 05:43:29;;;;;;;3.17;1.20;;;14.40;69.70;;;;;;5008486;28;20034;-75
2022/07/11 05:45:55;;;;;;;3.20;1.25;;;14.50;69.40;;;;;;5008556;28;20041;-75
2022/07/11 05:48:21;;;;;;;1.85;1.20;;;14.70;70.00;;;;;;5008502;28;20033;-76
2022/07/11 05:50:46;;;;;;;1.40;1.08;;;14.80;68.90;;;;;;5008608;28;20522;-75
2022/07/11 05:53:12;;;;;;;4.32;1.55;;;14.90;68.70;;;;;;5008571;28;20494;-75
2022/07/11 05:55:38;;;;;;;3.92;1.20;;;15.10;68.40;;;;;;5008479;28;20025;-75
2022/07/11 05:58:03;;;;;;;2.20;1.15;;;15.10;67.60;;;;;;5008109;28;20033;-75
2022/07/11 06:00:29;;;;;;;2.38;1.10;;;15.30;67.30;;;;;;5008398;28;20074;-75
2022/07/11 06:02:55;;;;;;;2.65;1.08;;;15.40;66.90;;;;;;5007914;28;20031;-75
2022/07/11 06:05:20;;;;;;;4.50;1.10;;;15.60;66.30;;;;;;5008235;28;20058;-74
2022/07/11 06:10:32;;;;;;;2.72;1.00;;;15.80;65.30;;;;;;5009778;28;20070;-75
2022/07/11 06:12:57;;;;;;;3.63;1.00;;;15.90;65.00;;;;;;5008523;28;20118;-74
2022/07/11 06:15:23;;;;;;;2.53;1.13;;;16.00;64.80;;;;;;5009281;28;20417;-74
2022/07/11 06:17:49;;;;;;;3.95;1.27;;;16.10;64.60;;;;;;5011597;28;20042;-74
2022/07/11 06:20:15;;;;;;;3.40;1.13;;;16.20;63.80;;;;;;5011719;28;20018;-75
2022/07/11 06:22:40;;;;;;;3.17;0.98;;;16.40;63.00;;;;;;5011460;28;20113;-74
2022/07/11 06:25:07;;;;;;;4.45;1.40;;;16.50;62.30;;;;;;5011449;28;20034;-75
2022/07/11 06:27:32;;;;;;;2.70;1.10;;;16.30;62.30;;;;;;5011432;28;20529;-75
2022/07/11 06:29:58;;;;;;;3.05;1.20;;;16.40;62.50;;;;;;5011481;28;20120;-76
2022/07/11 06:32:23;;;;;;;1.90;1.27;;;16.60;62.40;;;;;;5011616;28;20474;-76
2022/07/11 06:34:50;;;;;;;1.38;1.20;;;16.60;62.40;;;;;;5011382;28;20370;-75
2022/07/11 06:37:16;;;;;;;3.30;1.33;;;16.70;62.20;;;;;;5011330;28;20041;-76
2022/07/11 06:39:41;;;;;;;3.17;1.38;;;16.60;62.10;;;;;;5011306;28;20022;-75
2022/07/11 06:42:07;;;;;;;3.03;1.27;;;16.70;62.10;;;;;;5011409;28;20412;-75
2022/07/11 06:44:32;;;;;;;3.97;1.33;;;16.90;62.00;;;;;;5011412;28;20113;-75
2022/07/11 06:46:58;;;;;;;2.55;1.40;;;17.00;61.60;;;;;;5011104;28;20029;-74
2022/07/11 06:49:24;;;;;;;2.20;1.20;;;17.20;61.40;;;;;;5010742;28;20033;-76
2022/07/11 06:51:51;;;;;;;3.42;0.95;;;17.30;60.90;;;;;;5011507;28;20055;-75
2022/07/11 06:54:17;;;;;;;4.88;1.52;;;17.40;60.80;;;;;;5010947;28;20416;-76
2022/07/11 06:56:42;;;;;;;5.53;1.23;;;17.30;61.30;;;;;;5011257;28;20032;-76
2022/07/11 06:59:08;;;;;;;5.72;1.58;;;17.20;61.70;;;;;;5011627;28;20386;-76
2022/07/11 07:01:34;;;;;;;4.47;1.20;;;17.20;61.40;;;;;;5012166;28;20022;-76
2022/07/11 07:03:59;;;;;;;4.88;1.42;;;17.10;62.00;;;;;;5012282;28;20057;-76
2022/07/11 07:06:25;;;;;;;2.60;1.15;;;17.20;62.50;;;;;;5011869;28;20026;-75
2022/07/11 07:08:50;;;;;;;6.28;1.45;;;17.10;62.60;;;;;;5010528;28;20021;-76
2022/07/11 07:11:18;;;;;;;3.65;1.10;;;17.10;62.80;;;;;;5012165;28;20021;-76
2022/07/11 07:13:45;;;;;;;2.97;1.25;;;17.20;62.70;;;;;;5010877;28;20478;-76
2022/07/11 07:16:11;;;;;;;2.80;1.48;;;17.20;62.60;;;;;;5010426;28;20538;-76
2022/07/11 07:18:41;;;;;;;2.95;1.30;;;17.30;62.40;;;;;;5011139;28;20034;-76
2022/07/11 07:21:07;;;;;;;2.85;1.30;;;17.30;62.60;;;;;;5010658;28;20489;-76
2022/07/11 07:23:33;;;;;;;4.25;1.60;;;17.50;62.10;;;;;;5010702;28;20030;-76
2022/07/11 07:25:58;;;;;;;2.90;1.15;;;17.70;61.10;;;;;;5009716;28;20079;-77
2022/07/11 07:28:24;;;;;;;23.77;3.90;;;17.90;60.50;;;;;;5008526;28;20056;-75
2022/07/11 07:30:49;;;;;;;15.10;2.80;;;18.20;63.40;;;;;;5009430;28;20368;-75
2022/07/11 07:33:15;;;;;;;12.48;2.42;;;18.50;62.10;;;;;;5009970;28;20030;-86
2022/07/11 07:35:41;;;;;;;9.15;1.67;;;18.80;60.40;;;;;;5009861;28;20018;-72
2022/07/11 07:38:08;;;;;;;2.83;1.13;;;19.10;59.60;;;;;;5008985;28;20486;-74
2022/07/11 07:40:35;;;;;;;4.68;1.20;;;19.40;57.00;;;;;;5009369;28;20026;-75
2022/07/11 07:43:01;;;;;;;4.15;1.20;;;19.50;56.70;;;;;;4993557;28;20098;-75
2022/07/11 07:45:26;;;;;;;3.00;1.38;;;19.70;57.10;;;;;;5010717;28;20025;-76
2022/07/11 07:47:52;;;;;;;4.72;1.50;;;19.80;55.00;;;;;;5009982;28;20118;-75
2022/07/11 07:50:18;;;;;;;4.20;1.60;;;19.40;55.80;;;;;;5009817;28;20030;-75
2022/07/11 07:52:43;;;;;;;1.45;1.13;;;19.40;56.40;;;;;;5010504;28;20022;-75
2022/07/11 07:55:10;;;;;;;4.88;1.65;;;19.40;56.70;;;;;;5010214;28;20076;-75
2022/07/11 07:57:37;;;;;;;6.07;1.50;;;19.40;56.10;;;;;;5011470;28;20132;-76
2022/07/11 08:02:50;;;;;;;1.80;1.17;;;19.10;57.30;;;;;;5011488;28;20091;-75
2022/07/11 08:05:17;;;;;;;3.30;1.27;;;19.30;56.90;;;;;;4994209;28;20038;-76
2022/07/11 08:07:43;;;;;;;2.17;1.20;;;19.30;55.80;;;;;;5009730;28;20116;-76
2022/07/11 08:10:09;;;;;;;5.53;1.25;;;19.40;55.60;;;;;;5009310;28;20124;-76
2022/07/11 08:12:35;;;;;;;2.83;0.90;;;19.60;55.80;;;;;;5011108;28;20387;-76
2022/07/11 08:15:02;;;;;;;2.65;1.00;;;19.80;54.40;;;;;;5009851;28;20117;-76
2022/07/11 08:17:28;;;;;;;3.75;1.10;;;20.10;52.50;;;;;;5009072;28;20034;-75
2022/07/11 08:19:53;;;;;;;0.73;0.73;;;20.30;51.10;;;;;;5009585;28;20427;-75
2022/07/11 08:22:19;;;;;;;1.35;0.90;;;20.50;50.90;;;;;;5009658;28;20037;-75
2022/07/11 08:24:46;;;;;;;1.45;1.00;;;20.60;50.70;;;;;;4993809;28;20367;-75
2022/07/11 08:27:11;;;;;;;1.88;1.00;;;20.80;50.50;;;;;;5009534;28;20029;-75
2022/07/11 08:29:37;;;;;;;1.30;0.70;;;20.50;51.20;;;;;;5009592;28;20025;-76
2022/07/11 08:32:03;;;;;;;0.85;0.70;;;20.20;51.10;;;;;;5009642;28;20441;-76
2022/07/11 08:34:29;;;;;;;2.72;0.70;;;20.30;50.90;;;;;;5009287;28;20040;-76
2022/07/11 08:36:54;;;;;;;0.73;0.43;;;20.10;50.90;;;;;;4991767;28;20061;-75
2022/07/11 08:39:20;;;;;;;0.75;0.60;;;20.00;49.80;;;;;;5008608;28;20078;-79
2022/07/11 08:41:45;;;;;;;0.68;0.50;;;20.10;50.40;;;;;;5009751;28;20481;-75
2022/07/11 08:44:11;;;;;;;1.13;0.50;;;20.30;50.50;;;;;;5009249;28;20131;-75
2022/07/11 08:46:42;;;;;;;0.80;0.50;;;20.40;49.50;;;;;;5009287;28;20450;-75
2022/07/11 08:49:07;;;;;;;2.20;0.68;;;20.30;50.00;;;;;;5009460;28;20022;-76
2022/07/11 08:51:37;;;;;;;0.55;0.40;;;20.30;49.40;;;;;;5009235;28;20064;-76
2022/07/11 08:54:03;;;;;;;2.15;0.50;;;20.70;49.60;;;;;;5009626;28;20450;-75
2022/07/11 08:56:30;;;;;;;1.20;0.45;;;20.70;48.60;;;;;;5009605;28;20086;-76
2022/07/11 08:59:00;;;;;;;4.38;0.63;;;20.70;49.10;;;;;;5008658;28;20083;-76
2022/07/11 09:01:35;;;;;;;1.85;0.60;;;20.80;49.00;;;;;;5009102;28;20432;-74
2022/07/11 09:04:01;;;;;;;0.88;0.40;;;21.00;49.10;;;;;;5013227;28;20029;-83
2022/07/11 09:06:28;;;;;;;0.70;0.50;;;21.20;48.50;;;;;;5010696;28;20030;-86
2022/07/11 09:08:58;;;;;;;0.80;0.45;;;21.40;47.60;;;;;;5010178;28;20172;-75
2022/07/11 09:11:24;;;;;;;1.05;0.70;;;21.70;47.10;;;;;;5009921;28;20572;-76
2022/07/11 09:13:50;;;;;;;0.63;0.45;;;21.90;46.70;;;;;;4992568;28;20033;-75
2022/07/11 09:16:19;;;;;;;0.65;0.50;;;21.80;45.50;;;;;;5009694;28;20039;-75
2022/07/11 09:18:44;;;;;;;0.55;0.45;;;21.80;46.10;;;;;;5008944;28;20034;-80
2022/07/11 09:26:46;;;;;;;0.85;0.60;;;22.00;45.40;;;;;;5009950;28;20037;-76
2022/07/11 09:29:14;;;;;;;2.28;0.57;;;21.70;45.70;;;;;;5008057;28;20055;-75
2022/07/11 09:31:44;;;;;;;0.70;0.50;;;21.40;46.30;;;;;;5008518;28;20050;-75
2022/07/11 09:34:15;;;;;;;0.60;0.32;;;21.10;47.40;;;;;;5008505;28;20504;-76
2022/07/11 09:36:46;;;;;;;0.60;0.60;;;20.90;48.40;;;;;;5008017;28;20603;-75
2022/07/11 09:39:20;;;;;;;1.67;0.40;;;20.80;48.60;;;;;;5008390;28;20029;-75
2022/07/11 09:41:47;;;;;;;1.48;0.73;;;20.90;49.20;;;;;;5007919;28;20249;-75
2022/07/11 09:44:18;;;;;;;1.02;0.70;;;21.00;48.20;;;;;;5007725;28;20026;-75
2022/07/11 09:46:46;;;;;;;1.25;0.50;;;21.00;48.50;;;;;;5008376;28;20030;-75
2022/07/11 09:49:13;;;;;;;0.63;0.55;;;21.30;49.00;;;;;;5008466;28;20113;-74
2022/07/11 09:51:39;;;;;;;0.70;0.52;;;21.50;47.30;;;;;;5007809;28;20087;-74
2022/07/11 09:54:06;;;;;;;0.40;0.40;;;21.60;47.00;;;;;;5008083;28;20053;-75
2022/07/11 09:56:40;;;;;;;0.95;0.52;;;21.90;46.20;;;;;;5007951;28;20105;-75
2022/07/11 09:59:09;;;;;;;0.50;0.50;;;22.00;45.10;;;;;;5008280;28;20533;-74
2022/07/11 10:01:35;;;;;;;0.40;0.40;;;22.30;45.00;;;;;;5007964;28;20565;-75
2022/07/11 10:04:01;;;;;;;0.30;0.30;;;22.20;45.40;;;;;;5008790;28;20102;-77
2022/07/11 10:06:27;;;;;;;1.15;0.50;;;21.90;45.00;;;;;;4990405;28;20493;-75
2022/07/11 10:08:53;;;;;;;1.73;0.50;;;21.70;46.10;;;;;;5007233;28;20030;-75
2022/07/11 10:11:19;;;;;;;1.52;1.00;;;21.70;45.70;;;;;;5007876;28;20030;-75
2022/07/11 10:13:45;;;;;;;1.42;0.50;;;21.70;47.00;;;;;;5007368;28;20030;-76
2022/07/11 10:16:35;;;;;;;0.90;0.50;;;21.80;45.80;;;;;;5007267;28;20582;-74
2022/07/11 10:19:24;;;;;;;0.50;0.50;;;22.20;45.30;;;;;;5007913;28;20026;-79
2022/07/11 10:22:15;;;;;;;0.65;0.63;;;22.40;45.20;;;;;;5007393;28;20478;-79
2022/07/11 10:24:52;;;;;;;0.47;0.30;;;22.40;43.50;;;;;;5008693;28;20034;-79
2022/07/11 10:27:29;;;;;;;0.30;0.30;;;22.30;44.20;;;;;;5007570;28;20030;-78
2022/07/11 10:29:54;;;;;;;0.47;0.40;;;22.20;44.80;;;;;;5007355;28;20109;-79
2022/07/11 10:32:20;;;;;;;2.50;0.30;;;22.00;44.90;;;;;;5007312;28;20212;-79
2022/07/11 10:35:06;;;;;;;2.13;0.47;;;21.90;45.90;;;;;;4990972;28;20099;-79
2022/07/11 10:37:51;;;;;;;1.65;0.40;;;22.10;46.60;;;;;;5007507;28;20179;-79
2022/07/11 10:40:55;;;;;;;2.22;0.70;;;22.30;45.70;;;;;;4990956;28;20030;-79
2022/07/11 10:43:30;;;;;;;2.10;0.68;;;22.70;44.40;;;;;;5051167;28;20055;-79
2022/07/11 10:46:03;;;;;;;0.32;0.32;;;22.90;43.50;;;;;;5012524;28;20026;-78
2022/07/11 10:48:31;;;;;;;0.98;0.50;;;22.50;43.80;;;;;;5006490;28;20114;-80
2022/07/11 10:51:24;;;;;;;2.17;0.70;;;22.20;44.80;;;;;;4990617;28;20030;-78
2022/07/11 10:53:51;;;;;;;1.05;0.60;;;22.10;45.50;;;;;;5006922;28;20083;-80
2022/07/11 10:56:19;;;;;;;1.95;0.85;;;22.20;45.60;;;;;;5007658;28;20070;-82
2022/07/11 10:59:03;;;;;;;2.85;0.63;;;22.30;45.30;;;;;;5007890;28;20045;-83
2022/07/11 11:01:28;;;;;;;0.43;0.43;;;22.30;45.20;;;;;;4992578;28;20064;-79
2022/07/11 11:04:33;;;;;;;0.68;0.60;;;22.20;45.10;;;;;;4993712;28;20061;-79
2022/07/11 11:06:59;;;;;;;0.68;0.40;;;22.50;45.60;;;;;;5012293;28;20469;-78
2022/07/11 11:09:40;;;;;;;1.65;0.65;;;22.90;45.40;;;;;;5010502;28;20030;-84
2022/07/11 11:12:06;;;;;;;0.32;0.32;;;23.30;44.80;;;;;;4994456;28;20050;-83
2022/07/11 11:14:32;;;;;;;2.15;0.50;;;23.40;43.30;;;;;;4994440;28;20095;-80
2022/07/11 11:17:36;;;;;;;1.38;0.40;;;23.70;43.20;;;;;;4994450;28;20030;-82
2022/07/11 11:20:06;;;;;;;3.80;2.97;;;24.20;42.50;;;;;;5010351;28;20080;-77
2022/07/11 11:22:33;;;;;;;0.63;0.30;;;24.50;40.20;;;;;;5010121;28;20030;-77
2022/07/11 11:25:01;;;;;;;0.95;0.50;;;24.50;39.30;;;;;;5009960;28;20065;-78
2022/07/11 11:27:27;;;;;;;0.47;0.40;;;23.90;40.40;;;;;;5011568;28;20026;-77
2022/07/11 11:29:54;;;;;;;1.40;0.50;;;24.10;41.70;;;;;;5010095;28;20105;-78
2022/07/11 11:32:22;;;;;;;1.75;0.50;;;24.30;40.60;;;;;;5010209;28;20105;-77
2022/07/11 11:34:48;;;;;;;1.08;0.50;;;24.50;39.90;;;;;;5009982;28;20459;-78
2022/07/11 11:37:16;;;;;;;0.50;0.25;;;24.60;39.00;;;;;;5010398;28;20075;-77
2022/07/11 11:39:42;;;;;;;1.75;0.75;;;24.50;39.80;;;;;;5009749;28;20026;-75
2022/07/11 11:42:07;;;;;;;1.45;0.50;;;24.70;38.90;;;;;;5010377;28;20564;-76
2022/07/11 11:44:34;;;;;;;1.35;0.65;;;24.60;39.00;;;;;;5009978;28;20111;-77
2022/07/11 11:47:00;;;;;;;0.40;0.40;;;24.70;39.60;;;;;;4993535;28;20126;-77
2022/07/11 11:49:26;;;;;;;1.25;0.50;;;25.00;39.80;;;;;;5009803;28;20488;-77
2022/07/11 11:51:55;;;;;;;0.57;0.40;;;25.10;38.40;;;;;;4993970;28;20466;-75
2022/07/11 11:54:23;;;;;;;1.08;0.60;;;25.30;37.50;;;;;;5011993;28;20029;-76
2022/07/11 11:56:50;;;;;;;1.23;0.40;;;25.50;37.40;;;;;;5010160;28;20041;-76
2022/07/11 11:59:16;;;;;;;0.65;0.35;;;25.40;37.20;;;;;;5010230;28;20026;-76
2022/07/11 12:01:44;;;;;;;0.52;0.32;;;25.60;37.70;;;;;;5009908;28;20496;-77
2022/07/11 12:04:12;;;;;;;0.47;0.47;;;25.90;36.30;;;;;;5010014;28;20075;-76
2022/07/11 12:06:40;;;;;;;1.55;0.40;;;26.10;36.00;;;;;;5009337;28;20050;-76
2022/07/11 12:09:10;;;;;;;2.28;0.32;;;26.30;35.50;;;;;;5009787;28;20035;-75
2022/07/11 12:11:37;;;;;;;0.80;0.38;;;26.40;35.90;;;;;;5009846;28;20215;-75
2022/07/11 12:14:05;;;;;;;0.20;0.20;;;26.50;34.60;;;;;;4993030;28;20060;-75
2022/07/11 12:16:46;;;;;;;1.10;0.30;;;26.60;34.60;;;;;;5010187;28;20061;-75
2022/07/11 12:19:21;;;;;;;1.38;0.47;;;26.50;35.50;;;;;;5009820;28;20026;-76
2022/07/11 12:21:50;;;;;;;2.70;0.60;;;26.40;34.50;;;;;;4993266;28;20038;-75
2022/07/11 12:24:24;;;;;;;0.98;0.20;;;26.40;35.40;;;;;;5009656;28;20064;-75
2022/07/11 12:26:50;;;;;;;1.88;0.57;;;26.40;34.90;;;;;;5009578;28;20099;-76
2022/07/11 12:29:22;;;;;;;0.57;0.30;;;26.60;34.50;;;;;;5008843;28;20125;-75
2022/07/11 12:32:00;;;;;;;0.30;0.30;;;26.70;34.80;;;;;;5005913;28;20522;-76
2022/07/11 12:34:43;;;;;;;0.35;0.35;;;27.00;34.70;;;;;;5005740;28;20117;-75
2022/07/11 12:37:18;;;;;;;0.35;0.30;;;27.40;33.90;;;;;;5006124;28;20065;-75
2022/07/11 12:39:52;;;;;;;1.02;0.30;;;27.40;33.10;;;;;;5008659;28;20063;-77
2022/07/11 12:42:29;;;;;;;0.13;0.13;;;27.40;33.00;;;;;;5009529;28;20021;-75
2022/07/11 12:45:13;;;;;;;0.65;0.20;;;27.50;33.50;;;;;;5008851;28;20034;-76
2022/07/11 12:47:49;;;;;;;1.08;0.28;;;27.90;33.00;;;;;;5009841;28;20083;-76
2022/07/11 12:50:16;;;;;;;1.25;0.35;;;27.90;32.80;;;;;;5009291;28;20121;-75
2022/07/11 12:52:47;;;;;;;0.32;0.32;;;27.80;32.00;;;;;;5009369;28;20053;-75
2022/07/11 12:55:24;;;;;;;0.43;0.25;;;27.70;32.60;;;;;;5010485;28;20022;-75
2022/07/11 12:58:09;;;;;;;0.63;0.30;;;27.50;32.70;;;;;;5008915;28;20034;-75
2022/07/11 13:00:37;;;;;;;2.20;1.00;;;27.50;32.90;;;;;;5009231;28;20378;-76